sensor_id;sensor_type;location;lat;lon;timestamp;pressure;altitude;pressure_sealevel;temperature;humidity
39491;BME280;25175;50.140;18.990;2024-01-10T00:01:19;100256.00;;;-12.15;48.63
39491;BME280;25175;50.140;18.990;2024-01-10T00:04:28;100260.94;;;-12.08;48.61
39491;BME280;25175;50.140;18.990;2024-01-10T00:07:33;100257.41;;;-11.98;48.30
39491;BME280;25175;50.140;18.990;2024-01-10T00:10:38;100247.19;;;-11.92;47.80
39491;BME280;25175;50.140;18.990;2024-01-10T00:13:43;100249.59;;;-11.86;47.62
39491;BME280;25175;50.140;18.990;2024-01-10T00:16:51;100222.75;;;-11.94;47.54
39491;BME280;25175;50.140;18.990;2024-01-10T00:19:56;100239.50;;;-11.89;47.44
39491;BME280;25175;50.140;18.990;2024-01-10T00:23:01;99743.66;;;-14.85;47.68
39491;BME280;25175;50.140;18.990;2024-01-10T00:26:06;100240.25;;;-11.82;47.61
39491;BME280;25175;50.140;18.990;2024-01-10T00:29:11;100238.50;;;-11.79;47.49
39491;BME280;25175;50.140;18.990;2024-01-10T00:32:18;100229.16;;;-11.75;47.50
39491;BME280;25175;50.140;18.990;2024-01-10T00:35:23;100235.84;;;-11.73;47.31
39491;BME280;25175;50.140;18.990;2024-01-10T00:38:28;99924.00;;;-13.55;47.23
39491;BME280;25175;50.140;18.990;2024-01-10T00:41:33;100224.19;;;-11.80;47.48
39491;BME280;25175;50.140;18.990;2024-01-10T00:44:38;100231.09;;;-11.89;47.40
39491;BME280;25175;50.140;18.990;2024-01-10T00:47:48;100230.47;;;-12.00;47.63
39491;BME280;25175;50.140;18.990;2024-01-10T00:50:53;100221.31;;;-12.07;47.55
39491;BME280;25175;50.140;18.990;2024-01-10T00:53:58;100224.00;;;-12.18;47.57
39491;BME280;25175;50.140;18.990;2024-01-10T00:57:03;100230.94;;;-12.30;48.07
39491;BME280;25175;50.140;18.990;2024-01-10T01:00:10;100230.22;;;-12.38;48.50
39491;BME280;25175;50.140;18.990;2024-01-10T01:03:19;100221.34;;;-12.62;48.95
39491;BME280;25175;50.140;18.990;2024-01-10T01:06:24;100218.19;;;-12.76;49.26
39491;BME280;25175;50.140;18.990;2024-01-10T01:09:29;100221.72;;;-12.87;48.99
39491;BME280;25175;50.140;18.990;2024-01-10T01:12:34;100227.72;;;-12.96;49.10
39491;BME280;25175;50.140;18.990;2024-01-10T01:15:40;100251.31;;;-12.95;49.02
39491;BME280;25175;50.140;18.990;2024-01-10T01:18:48;100248.88;;;-13.03;49.43
39491;BME280;25175;50.140;18.990;2024-01-10T01:21:52;100245.41;;;-12.96;49.50
39491;BME280;25175;50.140;18.990;2024-01-10T01:24:58;100228.59;;;-12.98;48.65
39491;BME280;25175;50.140;18.990;2024-01-10T01:28:04;100246.91;;;-12.83;48.71
39491;BME280;25175;50.140;18.990;2024-01-10T01:31:09;100230.94;;;-12.85;48.85
39491;BME280;25175;50.140;18.990;2024-01-10T01:34:16;100238.53;;;-12.83;48.94
39491;BME280;25175;50.140;18.990;2024-01-10T01:37:22;100251.97;;;-12.81;48.79
39491;BME280;25175;50.140;18.990;2024-01-10T01:40:26;100239.31;;;-12.80;49.25
39491;BME280;25175;50.140;18.990;2024-01-10T01:43:32;100241.72;;;-12.71;48.86
39491;BME280;25175;50.140;18.990;2024-01-10T01:46:37;100273.22;;;-12.97;48.74
39491;BME280;25175;50.140;18.990;2024-01-10T01:49:47;100219.81;;;-12.72;48.67
39491;BME280;25175;50.140;18.990;2024-01-10T01:52:52;100245.72;;;-12.59;48.37
39491;BME280;25175;50.140;18.990;2024-01-10T01:56:02;100243.31;;;-12.67;48.67
39491;BME280;25175;50.140;18.990;2024-01-10T01:59:10;100223.94;;;-12.65;49.04
39491;BME280;25175;50.140;18.990;2024-01-10T02:02:16;100227.16;;;-12.58;48.34
39491;BME280;25175;50.140;18.990;2024-01-10T02:05:25;100219.56;;;-12.57;48.07
39491;BME280;25175;50.140;18.990;2024-01-10T02:08:31;100202.88;;;-12.65;47.87
39491;BME280;25175;50.140;18.990;2024-01-10T02:11:36;100209.38;;;-12.52;47.85
39491;BME280;25175;50.140;18.990;2024-01-10T02:14:43;100215.19;;;-12.47;47.58
39491;BME280;25175;50.140;18.990;2024-01-10T02:17:47;100203.38;;;-12.45;46.96
39491;BME280;25175;50.140;18.990;2024-01-10T02:20:55;100210.03;;;-12.41;47.08
39491;BME280;25175;50.140;18.990;2024-01-10T02:24:00;100204.94;;;-12.38;46.92
39491;BME280;25175;50.140;18.990;2024-01-10T02:27:08;100191.47;;;-12.39;46.96
39491;BME280;25175;50.140;18.990;2024-01-10T02:30:13;100208.41;;;-12.44;46.90
39491;BME280;25175;50.140;18.990;2024-01-10T02:33:18;100204.31;;;-12.51;47.16
39491;BME280;25175;50.140;18.990;2024-01-10T02:36:23;100210.44;;;-12.62;48.06
39491;BME280;25175;50.140;18.990;2024-01-10T02:39:28;100221.50;;;-12.71;48.18
39491;BME280;25175;50.140;18.990;2024-01-10T02:42:36;100203.16;;;-12.85;48.26
39491;BME280;25175;50.140;18.990;2024-01-10T02:45:41;100211.41;;;-12.72;48.26
39491;BME280;25175;50.140;18.990;2024-01-10T02:48:47;100200.59;;;-12.82;48.52
39491;BME280;25175;50.140;18.990;2024-01-10T02:51:51;100208.09;;;-12.76;48.63
39491;BME280;25175;50.140;18.990;2024-01-10T02:54:57;100213.06;;;-12.70;48.26
39491;BME280;25175;50.140;18.990;2024-01-10T02:58:04;100207.91;;;-12.64;47.98
39491;BME280;25175;50.140;18.990;2024-01-10T03:01:09;100185.09;;;-12.61;47.50
39491;BME280;25175;50.140;18.990;2024-01-10T03:04:14;100164.19;;;-12.69;47.54
39491;BME280;25175;50.140;18.990;2024-01-10T03:07:19;100189.22;;;-12.55;47.22
39491;BME280;25175;50.140;18.990;2024-01-10T03:10:25;100187.50;;;-12.55;47.50
39491;BME280;25175;50.140;18.990;2024-01-10T03:13:33;100184.94;;;-12.52;47.59
39491;BME280;25175;50.140;18.990;2024-01-10T03:16:38;100182.34;;;-12.47;47.49
39491;BME280;25175;50.140;18.990;2024-01-10T03:19:44;100179.81;;;-12.47;47.42
39491;BME280;25175;50.140;18.990;2024-01-10T03:22:48;100184.81;;;-12.44;47.37
39491;BME280;25175;50.140;18.990;2024-01-10T03:25:53;100173.88;;;-12.45;47.22
39491;BME280;25175;50.140;18.990;2024-01-10T03:29:02;100173.94;;;-12.48;47.29
39491;BME280;25175;50.140;18.990;2024-01-10T03:32:07;100147.19;;;-12.61;47.32
39491;BME280;25175;50.140;18.990;2024-01-10T03:35:12;100163.91;;;-12.54;47.25
39491;BME280;25175;50.140;18.990;2024-01-10T03:38:17;100152.44;;;-12.71;47.42
39491;BME280;25175;50.140;18.990;2024-01-10T03:41:22;100179.25;;;-12.63;47.51
39491;BME280;25175;50.140;18.990;2024-01-10T03:44:30;100171.69;;;-12.64;47.76
39491;BME280;25175;50.140;18.990;2024-01-10T03:47:35;100181.84;;;-12.67;48.01
39491;BME280;25175;50.140;18.990;2024-01-10T03:50:40;100165.97;;;-12.77;48.11
39491;BME280;25175;50.140;18.990;2024-01-10T03:53:45;99651.88;;;-15.88;47.92
39491;BME280;25175;50.140;18.990;2024-01-10T03:56:50;100184.31;;;-12.63;48.03
39491;BME280;25175;50.140;18.990;2024-01-10T03:59:58;100171.66;;;-12.61;47.98
39491;BME280;25175;50.140;18.990;2024-01-10T04:03:24;100150.69;;;-12.68;47.78
39491;BME280;25175;50.140;18.990;2024-01-10T04:06:29;100168.97;;;-12.54;47.66
39491;BME280;25175;50.140;18.990;2024-01-10T04:09:35;100150.66;;;-12.65;47.56
39491;BME280;25175;50.140;18.990;2024-01-10T04:12:40;100163.06;;;-12.53;47.70
39491;BME280;25175;50.140;18.990;2024-01-10T04:15:48;100159.66;;;-12.50;47.39
39491;BME280;25175;50.140;18.990;2024-01-10T04:18:53;100149.53;;;-12.49;47.36
39491;BME280;25175;50.140;18.990;2024-01-10T04:21:58;100153.75;;;-12.51;47.89
39491;BME280;25175;50.140;18.990;2024-01-10T04:25:06;100155.50;;;-12.56;47.83
39491;BME280;25175;50.140;18.990;2024-01-10T04:28:12;100159.13;;;-12.69;47.75
39491;BME280;25175;50.140;18.990;2024-01-10T04:31:19;100080.09;;;-13.31;48.15
39491;BME280;25175;50.140;18.990;2024-01-10T04:34:25;100166.94;;;-12.84;48.59
39491;BME280;25175;50.140;18.990;2024-01-10T04:37:30;100166.06;;;-12.83;48.41
39491;BME280;25175;50.140;18.990;2024-01-10T04:40:35;100165.19;;;-12.80;48.25
39491;BME280;25175;50.140;18.990;2024-01-10T04:43:39;100154.28;;;-12.82;48.30
39491;BME280;25175;50.140;18.990;2024-01-10T04:46:47;100165.16;;;-12.77;48.23
39491;BME280;25175;50.140;18.990;2024-01-10T04:49:52;100155.06;;;-12.79;48.19
39491;BME280;25175;50.140;18.990;2024-01-10T04:52:57;100142.69;;;-12.95;47.90
39491;BME280;25175;50.140;18.990;2024-01-10T04:56:02;100167.97;;;-12.97;47.89
39491;BME280;25175;50.140;18.990;2024-01-10T04:59:07;100172.34;;;-13.09;48.47
39491;BME280;25175;50.140;18.990;2024-01-10T05:02:15;100166.50;;;-13.13;48.67
39491;BME280;25175;50.140;18.990;2024-01-10T05:05:20;100183.41;;;-13.16;48.55
39491;BME280;25175;50.140;18.990;2024-01-10T05:08:26;100144.00;;;-13.29;48.31
39491;BME280;25175;50.140;18.990;2024-01-10T05:11:31;100151.53;;;-13.25;48.28
39491;BME280;25175;50.140;18.990;2024-01-10T05:14:36;100163.97;;;-13.11;47.86
39491;BME280;25175;50.140;18.990;2024-01-10T05:17:44;100163.00;;;-13.03;47.63
39491;BME280;25175;50.140;18.990;2024-01-10T05:20:49;100146.31;;;-13.11;47.16
39491;BME280;25175;50.140;18.990;2024-01-10T05:23:54;100142.84;;;-13.07;47.11
39491;BME280;25175;50.140;18.990;2024-01-10T05:26:59;100127.88;;;-13.18;47.29
39491;BME280;25175;50.140;18.990;2024-01-10T05:30:06;100137.75;;;-13.01;47.01
39491;BME280;25175;50.140;18.990;2024-01-10T05:33:16;100166.22;;;-12.92;47.02
39491;BME280;25175;50.140;18.990;2024-01-10T05:36:22;100153.53;;;-12.89;47.04
39491;BME280;25175;50.140;18.990;2024-01-10T05:39:26;100135.81;;;-12.86;47.04
39491;BME280;25175;50.140;18.990;2024-01-10T05:42:31;100152.72;;;-12.89;47.14
39491;BME280;25175;50.140;18.990;2024-01-10T05:45:36;100142.66;;;-12.94;47.68
39491;BME280;25175;50.140;18.990;2024-01-10T05:48:44;100135.84;;;-12.89;47.78
39491;BME280;25175;50.140;18.990;2024-01-10T05:51:49;100145.91;;;-12.86;47.79
39491;BME280;25175;50.140;18.990;2024-01-10T05:54:54;100145.84;;;-12.83;48.01
39491;BME280;25175;50.140;18.990;2024-01-10T05:58:00;100145.03;;;-12.83;47.77
39491;BME280;25175;50.140;18.990;2024-01-10T06:01:05;100166.22;;;-12.90;48.15
39491;BME280;25175;50.140;18.990;2024-01-10T06:04:13;100122.78;;;-13.15;48.71
39491;BME280;25175;50.140;18.990;2024-01-10T06:07:19;100156.97;;;-12.93;48.40
39491;BME280;25175;50.140;18.990;2024-01-10T06:10:25;100152.75;;;-12.94;48.26
39491;BME280;25175;50.140;18.990;2024-01-10T06:13:30;100143.59;;;-12.99;47.95
39491;BME280;25175;50.140;18.990;2024-01-10T06:16:35;100168.72;;;-12.90;47.61
39491;BME280;25175;50.140;18.990;2024-01-10T06:19:44;100175.47;;;-12.92;47.87
39491;BME280;25175;50.140;18.990;2024-01-10T06:22:49;100169.59;;;-12.93;47.85
39491;BME280;25175;50.140;18.990;2024-01-10T06:25:54;100165.34;;;-12.91;47.48
39491;BME280;25175;50.140;18.990;2024-01-10T06:28:59;100175.50;;;-12.94;47.68
39491;BME280;25175;50.140;18.990;2024-01-10T06:32:05;100162.94;;;-12.98;47.66
39491;BME280;25175;50.140;18.990;2024-01-10T06:35:13;100178.00;;;-12.91;47.34
39491;BME280;25175;50.140;18.990;2024-01-10T06:38:19;100171.28;;;-12.92;47.50
39491;BME280;25175;50.140;18.990;2024-01-10T06:41:24;100180.53;;;-12.94;47.42
39491;BME280;25175;50.140;18.990;2024-01-10T06:44:30;100167.38;;;-13.14;48.51
39491;BME280;25175;50.140;18.990;2024-01-10T06:47:34;100149.00;;;-13.25;48.33
39491;BME280;25175;50.140;18.990;2024-01-10T06:50:43;100153.28;;;-13.28;49.01
39491;BME280;25175;50.140;18.990;2024-01-10T06:53:48;100173.91;;;-13.01;48.57
39491;BME280;25175;50.140;18.990;2024-01-10T06:56:53;100175.56;;;-12.97;48.19
39491;BME280;25175;50.140;18.990;2024-01-10T06:59:58;100193.22;;;-12.97;48.31
39491;BME280;25175;50.140;18.990;2024-01-10T07:03:05;100097.16;;;-13.48;48.48
39491;BME280;25175;50.140;18.990;2024-01-10T07:06:13;100177.97;;;-12.89;48.45
39491;BME280;25175;50.140;18.990;2024-01-10T07:09:19;100176.16;;;-12.83;48.28
39491;BME280;25175;50.140;18.990;2024-01-10T07:12:24;100181.94;;;-12.73;48.10
39491;BME280;25175;50.140;18.990;2024-01-10T07:15:29;100176.81;;;-12.67;47.95
39491;BME280;25175;50.140;18.990;2024-01-10T07:18:34;100186.81;;;-12.61;47.93
39491;BME280;25175;50.140;18.990;2024-01-10T07:21:42;100176.59;;;-12.58;48.03
39491;BME280;25175;50.140;18.990;2024-01-10T07:24:47;100180.75;;;-12.53;48.10
39491;BME280;25175;50.140;18.990;2024-01-10T07:27:52;100175.63;;;-12.50;48.07
39491;BME280;25175;50.140;18.990;2024-01-10T07:30:57;100172.19;;;-12.46;48.11
39491;BME280;25175;50.140;18.990;2024-01-10T07:34:04;100166.25;;;-12.43;48.29
39491;BME280;25175;50.140;18.990;2024-01-10T07:37:11;100170.44;;;-12.41;48.50
39491;BME280;25175;50.140;18.990;2024-01-10T07:40:18;100154.53;;;-12.47;48.64
39491;BME280;25175;50.140;18.990;2024-01-10T07:43:23;100154.50;;;-12.44;48.53
39491;BME280;25175;50.140;18.990;2024-01-10T07:46:29;100170.34;;;-12.35;48.78
39491;BME280;25175;50.140;18.990;2024-01-10T07:49:35;100110.97;;;-12.60;48.80
39491;BME280;25175;50.140;18.990;2024-01-10T07:52:44;100155.88;;;-12.27;49.05
39491;BME280;25175;50.140;18.990;2024-01-10T07:55:48;100171.00;;;-12.24;49.11
39491;BME280;25175;50.140;18.990;2024-01-10T07:58:54;100157.47;;;-12.23;49.21
39491;BME280;25175;50.140;18.990;2024-01-10T08:02:00;100169.25;;;-12.22;49.38
39491;BME280;25175;50.140;18.990;2024-01-10T08:05:07;100176.81;;;-12.19;49.57
39491;BME280;25175;50.140;18.990;2024-01-10T08:08:16;100148.22;;;-12.24;49.71
39491;BME280;25175;50.140;18.990;2024-01-10T08:11:21;100149.63;;;-12.08;50.02
39491;BME280;25175;50.140;18.990;2024-01-10T08:14:26;100160.53;;;-12.06;50.14
39491;BME280;25175;50.140;18.990;2024-01-10T08:17:32;100157.09;;;-12.02;50.11
39491;BME280;25175;50.140;18.990;2024-01-10T08:20:38;100162.97;;;-12.00;50.41
39491;BME280;25175;50.140;18.990;2024-01-10T08:23:46;100165.44;;;-11.97;50.69
39491;BME280;25175;50.140;18.990;2024-01-10T08:26:51;100156.06;;;-11.90;51.06
39491;BME280;25175;50.140;18.990;2024-01-10T08:29:56;100166.09;;;-11.86;50.65
39491;BME280;25175;50.140;18.990;2024-01-10T08:33:01;100136.78;;;-11.97;50.83
39491;BME280;25175;50.140;18.990;2024-01-10T08:36:08;100155.81;;;-11.77;51.07
39491;BME280;25175;50.140;18.990;2024-01-10T08:39:16;100158.34;;;-11.77;51.55
39491;BME280;25175;50.140;18.990;2024-01-10T08:42:22;100143.72;;;-11.64;51.52
39491;BME280;25175;50.140;18.990;2024-01-10T08:45:26;100154.47;;;-11.53;51.69
39491;BME280;25175;50.140;18.990;2024-01-10T08:48:32;100094.44;;;-11.88;51.53
39491;BME280;25175;50.140;18.990;2024-01-10T08:51:40;100157.69;;;-11.44;51.67
39491;BME280;25175;50.140;18.990;2024-01-10T08:54:49;100147.47;;;-11.41;51.78
39491;BME280;25175;50.140;18.990;2024-01-10T08:57:53;100129.09;;;-11.50;52.02
39491;BME280;25175;50.140;18.990;2024-01-10T09:00:59;100154.06;;;-11.34;52.39
39491;BME280;25175;50.140;18.990;2024-01-10T09:04:03;100130.47;;;-11.36;52.45
39491;BME280;25175;50.140;18.990;2024-01-10T09:07:09;100124.34;;;-11.24;52.53
39491;BME280;25175;50.140;18.990;2024-01-10T09:10:16;100139.88;;;-11.01;52.60
39491;BME280;25175;50.140;18.990;2024-01-10T09:13:23;100142.91;;;-10.87;52.82
39491;BME280;25175;50.140;18.990;2024-01-10T09:16:28;100157.81;;;-10.74;52.82
39491;BME280;25175;50.140;18.990;2024-01-10T09:19:33;100109.03;;;-10.83;52.89
39491;BME280;25175;50.140;18.990;2024-01-10T09:22:38;100061.44;;;-11.06;53.04
39491;BME280;25175;50.140;18.990;2024-01-10T09:25:47;100143.34;;;-10.35;52.95
39491;BME280;25175;50.140;18.990;2024-01-10T09:28:52;100135.41;;;-10.22;52.82
39491;BME280;25175;50.140;18.990;2024-01-10T09:31:57;100137.78;;;-10.17;52.55
39491;BME280;25175;50.140;18.990;2024-01-10T09:35:02;100145.16;;;-10.08;52.06
39491;BME280;25175;50.140;18.990;2024-01-10T09:38:07;100122.94;;;-10.00;53.07
39491;BME280;25175;50.140;18.990;2024-01-10T09:41:15;100140.38;;;-9.88;52.43
39491;BME280;25175;50.140;18.990;2024-01-10T09:44:21;100125.84;;;-9.82;52.63
39491;BME280;25175;50.140;18.990;2024-01-10T09:47:27;100131.38;;;-9.68;53.38
39491;BME280;25175;50.140;18.990;2024-01-10T09:50:33;100120.88;;;-9.56;53.07
39491;BME280;25175;50.140;18.990;2024-01-10T09:53:44;100105.28;;;-9.44;53.24
39491;BME280;25175;50.140;18.990;2024-01-10T09:56:58;100116.81;;;-9.32;52.85
39491;BME280;25175;50.140;18.990;2024-01-10T10:00:06;100119.75;;;-9.18;53.15
39491;BME280;25175;50.140;18.990;2024-01-10T10:03:17;100107.56;;;-9.07;53.09
39491;BME280;25175;50.140;18.990;2024-01-10T10:06:22;100106.22;;;-8.91;53.36
39491;BME280;25175;50.140;18.990;2024-01-10T10:09:28;100119.16;;;-8.71;52.90
39491;BME280;25175;50.140;18.990;2024-01-10T10:12:46;100104.06;;;-8.51;52.94
39491;BME280;25175;50.140;18.990;2024-01-10T10:16:00;100113.66;;;-8.33;52.79
39491;BME280;25175;50.140;18.990;2024-01-10T10:19:06;100107.22;;;-8.19;52.43
39491;BME280;25175;50.140;18.990;2024-01-10T10:22:14;100101.59;;;-8.04;52.12
39491;BME280;25175;50.140;18.990;2024-01-10T10:25:19;100091.72;;;-7.88;51.83
39491;BME280;25175;50.140;18.990;2024-01-10T10:28:31;99897.09;;;-8.98;51.19
39491;BME280;25175;50.140;18.990;2024-01-10T10:31:35;100088.34;;;-7.66;50.65
39491;BME280;25175;50.140;18.990;2024-01-10T10:34:41;100084.47;;;-7.53;50.49
39491;BME280;25175;50.140;18.990;2024-01-10T10:37:46;100082.22;;;-7.39;50.33
39491;BME280;25175;50.140;18.990;2024-01-10T10:40:53;100079.44;;;-7.33;49.89
39491;BME280;25175;50.140;18.990;2024-01-10T10:44:02;100084.22;;;-7.24;49.72
39491;BME280;25175;50.140;18.990;2024-01-10T10:47:15;100091.81;;;-7.22;49.83
39491;BME280;25175;50.140;18.990;2024-01-10T10:50:23;100076.00;;;-7.09;50.45
39491;BME280;25175;50.140;18.990;2024-01-10T10:53:30;100079.91;;;-7.00;50.02
39491;BME280;25175;50.140;18.990;2024-01-10T10:56:40;100081.25;;;-6.92;49.50
39491;BME280;25175;50.140;18.990;2024-01-10T10:59:53;100075.25;;;-6.91;49.35
39491;BME280;25175;50.140;18.990;2024-01-10T11:03:02;100064.81;;;-6.85;49.52
39491;BME280;25175;50.140;18.990;2024-01-10T11:06:09;100055.06;;;-6.75;49.93
39491;BME280;25175;50.140;18.990;2024-01-10T11:09:17;100060.63;;;-6.66;49.72
39491;BME280;25175;50.140;18.990;2024-01-10T11:12:41;100060.31;;;-6.58;49.69
39491;BME280;25175;50.140;18.990;2024-01-10T11:16:38;100056.75;;;-6.54;49.64
39491;BME280;25175;50.140;18.990;2024-01-10T11:20:20;100052.88;;;-6.43;50.08
39491;BME280;25175;50.140;18.990;2024-01-10T11:23:41;100041.19;;;-6.48;49.49
39491;BME280;25175;50.140;18.990;2024-01-10T11:26:49;100043.16;;;-6.35;49.71
39491;BME280;25175;50.140;18.990;2024-01-10T11:29:54;100040.22;;;-6.26;49.98
39491;BME280;25175;50.140;18.990;2024-01-10T11:33:18;100044.91;;;-6.17;49.39
39491;BME280;25175;50.140;18.990;2024-01-10T11:36:24;100053.22;;;-6.12;49.30
39491;BME280;25175;50.140;18.990;2024-01-10T11:39:29;100041.94;;;-6.06;49.66
39491;BME280;25175;50.140;18.990;2024-01-10T11:42:41;100032.34;;;-6.01;49.27
39491;BME280;25175;50.140;18.990;2024-01-10T11:45:51;100023.09;;;-6.04;49.36
39491;BME280;25175;50.140;18.990;2024-01-10T11:49:01;100043.59;;;-5.87;49.26
39491;BME280;25175;50.140;18.990;2024-01-10T11:52:08;99983.16;;;-6.06;49.64
39491;BME280;25175;50.140;18.990;2024-01-10T11:59:00;100026.13;;;-5.59;48.91
39491;BME280;25175;50.140;18.990;2024-01-10T12:02:07;100032.69;;;-5.53;49.11
39491;BME280;25175;50.140;18.990;2024-01-10T12:05:15;100023.88;;;-5.46;49.10
39491;BME280;25175;50.140;18.990;2024-01-10T12:08:26;100022.44;;;-5.35;48.99
39491;BME280;25175;50.140;18.990;2024-01-10T12:11:31;100029.47;;;-5.21;48.63
39491;BME280;25175;50.140;18.990;2024-01-10T12:14:36;100020.41;;;-5.10;49.06
39491;BME280;25175;50.140;18.990;2024-01-10T12:17:43;100024.03;;;-4.97;48.84
39491;BME280;25175;50.140;18.990;2024-01-10T12:20:51;100013.50;;;-4.91;48.69
39491;BME280;25175;50.140;18.990;2024-01-10T12:23:56;100016.53;;;-4.83;48.81
39491;BME280;25175;50.140;18.990;2024-01-10T12:27:01;100000.19;;;-4.80;48.60
39491;BME280;25175;50.140;18.990;2024-01-10T12:30:08;99997.09;;;-4.70;48.85
39491;BME280;25175;50.140;18.990;2024-01-10T12:33:13;100007.41;;;-4.55;48.17
39491;BME280;25175;50.140;18.990;2024-01-10T12:36:22;100006.13;;;-4.46;48.51
39491;BME280;25175;50.140;18.990;2024-01-10T12:39:27;99999.03;;;-4.41;48.26
39491;BME280;25175;50.140;18.990;2024-01-10T12:42:33;100007.19;;;-4.33;48.46
39491;BME280;25175;50.140;18.990;2024-01-10T12:45:38;100008.38;;;-4.23;48.35
39491;BME280;25175;50.140;18.990;2024-01-10T12:48:45;100012.34;;;-4.18;47.96
39491;BME280;25175;50.140;18.990;2024-01-10T12:52:05;100013.59;;;-4.09;48.06
39491;BME280;25175;50.140;18.990;2024-01-10T12:55:11;100009.97;;;-4.05;48.09
39491;BME280;25175;50.140;18.990;2024-01-10T12:58:15;99992.38;;;-4.11;47.93
39491;BME280;25175;50.140;18.990;2024-01-10T13:01:22;99929.78;;;-4.40;48.02
39491;BME280;25175;50.140;18.990;2024-01-10T13:04:28;99928.66;;;-4.34;47.81
39491;BME280;25175;50.140;18.990;2024-01-10T13:07:36;99988.69;;;-3.90;48.01
39491;BME280;25175;50.140;18.990;2024-01-10T13:10:42;99979.41;;;-3.93;47.44
39491;BME280;25175;50.140;18.990;2024-01-10T13:13:47;99977.66;;;-3.92;47.70
39491;BME280;25175;50.140;18.990;2024-01-10T13:16:52;99970.75;;;-3.90;47.54
39491;BME280;25175;50.140;18.990;2024-01-10T13:19:57;99967.84;;;-3.84;47.52
39491;BME280;25175;50.140;18.990;2024-01-10T13:23:05;99971.88;;;-3.80;47.42
39491;BME280;25175;50.140;18.990;2024-01-10T13:26:11;99967.44;;;-3.77;47.15
39491;BME280;25175;50.140;18.990;2024-01-10T13:29:16;99962.13;;;-3.74;47.32
39491;BME280;25175;50.140;18.990;2024-01-10T13:32:21;99963.56;;;-3.68;47.36
39491;BME280;25175;50.140;18.990;2024-01-10T13:35:30;99961.53;;;-3.63;47.17
39491;BME280;25175;50.140;18.990;2024-01-10T13:38:38;99936.34;;;-3.71;47.17
39491;BME280;25175;50.140;18.990;2024-01-10T13:41:42;99944.63;;;-3.66;47.48
39491;BME280;25175;50.140;18.990;2024-01-10T13:44:48;99953.28;;;-3.53;47.93
39491;BME280;25175;50.140;18.990;2024-01-10T13:47:52;99953.03;;;-3.48;47.74
39491;BME280;25175;50.140;18.990;2024-01-10T13:50:58;99957.34;;;-3.49;47.43
39491;BME280;25175;50.140;18.990;2024-01-10T13:54:05;99958.16;;;-3.48;47.61
39491;BME280;25175;50.140;18.990;2024-01-10T13:57:11;99953.78;;;-3.46;47.63
39491;BME280;25175;50.140;18.990;2024-01-10T14:00:19;99947.72;;;-3.45;47.53
39491;BME280;25175;50.140;18.990;2024-01-10T14:03:26;99956.44;;;-3.48;47.37
39491;BME280;25175;50.140;18.990;2024-01-10T14:06:30;99957.22;;;-3.47;47.66
39491;BME280;25175;50.140;18.990;2024-01-10T14:09:41;99956.34;;;-3.46;47.75
39491;BME280;25175;50.140;18.990;2024-01-10T14:12:47;99942.53;;;-3.44;47.71
39491;BME280;25175;50.140;18.990;2024-01-10T14:15:54;99944.25;;;-3.44;47.84
39491;BME280;25175;50.140;18.990;2024-01-10T14:18:59;99949.38;;;-3.44;47.65
39491;BME280;25175;50.140;18.990;2024-01-10T14:22:04;99949.38;;;-3.44;47.56
39491;BME280;25175;50.140;18.990;2024-01-10T14:25:12;99878.00;;;-3.83;47.80
39491;BME280;25175;50.140;18.990;2024-01-10T14:28:17;99934.34;;;-3.50;47.92
39491;BME280;25175;50.140;18.990;2024-01-10T14:31:22;99945.66;;;-3.54;47.87
39491;BME280;25175;50.140;18.990;2024-01-10T14:34:28;99943.28;;;-3.57;47.84
39491;BME280;25175;50.140;18.990;2024-01-10T14:37:35;99944.44;;;-3.63;48.09
39491;BME280;25175;50.140;18.990;2024-01-10T14:40:43;99956.00;;;-3.71;48.00
39491;BME280;25175;50.140;18.990;2024-01-10T14:43:49;99947.81;;;-3.78;48.50
39491;BME280;25175;50.140;18.990;2024-01-10T14:46:54;99960.97;;;-3.84;48.47
39491;BME280;25175;50.140;18.990;2024-01-10T14:49:59;99950.22;;;-3.90;48.63
39491;BME280;25175;50.140;18.990;2024-01-10T14:53:05;99941.59;;;-4.05;48.98
39491;BME280;25175;50.140;18.990;2024-01-10T14:56:12;99940.94;;;-4.08;49.53
39491;BME280;25175;50.140;18.990;2024-01-10T14:59:18;99943.28;;;-4.04;49.75
39491;BME280;25175;50.140;18.990;2024-01-10T15:02:23;99944.25;;;-4.06;49.83
39491;BME280;25175;50.140;18.990;2024-01-10T15:05:30;99897.75;;;-4.31;49.83
39491;BME280;25175;50.140;18.990;2024-01-10T15:08:34;99625.22;;;-6.00;49.77
39491;BME280;25175;50.140;18.990;2024-01-10T15:11:42;99926.78;;;-4.15;49.70
39491;BME280;25175;50.140;18.990;2024-01-10T15:14:49;99919.91;;;-4.30;49.25
39491;BME280;25175;50.140;18.990;2024-01-10T15:17:56;99941.09;;;-4.44;49.28
39491;BME280;25175;50.140;18.990;2024-01-10T15:21:02;99892.16;;;-4.87;50.08
39491;BME280;25175;50.140;18.990;2024-01-10T15:24:10;99931.97;;;-4.64;49.71
39491;BME280;25175;50.140;18.990;2024-01-10T15:27:17;99939.44;;;-4.77;49.94
39491;BME280;25175;50.140;18.990;2024-01-10T15:30:23;99937.41;;;-4.88;50.21
39491;BME280;25175;50.140;18.990;2024-01-10T15:33:27;99924.47;;;-5.01;50.08
39491;BME280;25175;50.140;18.990;2024-01-10T15:36:33;99942.31;;;-5.00;50.72
39491;BME280;25175;50.140;18.990;2024-01-10T15:39:40;99939.75;;;-5.00;50.72
39491;BME280;25175;50.140;18.990;2024-01-10T15:42:48;99929.41;;;-4.98;50.81
39491;BME280;25175;50.140;18.990;2024-01-10T15:45:52;99923.50;;;-4.99;50.67
39491;BME280;25175;50.140;18.990;2024-01-10T15:48:58;99925.22;;;-4.99;50.58
39491;BME280;25175;50.140;18.990;2024-01-10T15:52:03;99919.19;;;-5.15;50.37
39491;BME280;25175;50.140;18.990;2024-01-10T15:55:09;99931.22;;;-5.17;50.19
39491;BME280;25175;50.140;18.990;2024-01-10T15:58:16;99931.97;;;-5.32;50.31
39491;BME280;25175;50.140;18.990;2024-01-10T16:01:22;99872.50;;;-5.71;50.77